sensor_id;sensor_type;location;lat;lon;timestamp;P1;durP1;ratioP1;P2;durP2;ratioP2
61527;SDS011;47395;42.032;-8.634;2023-09-18T00:00:55;27.40;;;3.10;;
61527;SDS011;47395;42.032;-8.634;2023-09-18T00:02:59;30.65;;;3.50;;
61527;SDS011;47395;42.032;-8.634;2023-09-18T00:05:03;20.23;;;3.15;;
61527;SDS011;47395;42.032;-8.634;2023-09-18T00:07:04;23.08;;;3.35;;
61527;SDS011;47395;42.032;-8.634;2023-09-18T00:09:05;23.27;;;3.17;;
61527;SDS011;47395;42.032;-8.634;2023-09-18T00:11:12;22.75;;;4.22;;
61527;SDS011;47395;42.032;-8.634;2023-09-18T00:13:13;20.95;;;3.17;;
61527;SDS011;47395;42.032;-8.634;2023-09-18T00:15:15;15.50;;;3.13;;
61527;SDS011;47395;42.032;-8.634;2023-09-18T00:17:16;22.98;;;2.75;;
61527;SDS011;47395;42.032;-8.634;2023-09-18T00:19:17;25.60;;;3.58;;
61527;SDS011;47395;42.032;-8.634;2023-09-18T00:21:18;21.50;;;2.85;;
61527;SDS011;47395;42.032;-8.634;2023-09-18T00:23:19;31.70;;;3.72;;
61527;SDS011;47395;42.032;-8.634;2023-09-18T00:25:21;18.42;;;3.08;;
61527;SDS011;47395;42.032;-8.634;2023-09-18T00:27:22;20.90;;;3.70;;
61527;SDS011;47395;42.032;-8.634;2023-09-18T00:29:23;24.38;;;3.50;;
61527;SDS011;47395;42.032;-8.634;2023-09-18T00:31:24;17.02;;;3.20;;
61527;SDS011;47395;42.032;-8.634;2023-09-18T00:33:25;27.60;;;3.38;;
61527;SDS011;47395;42.032;-8.634;2023-09-18T00:35:26;22.65;;;4.05;;
61527;SDS011;47395;42.032;-8.634;2023-09-18T00:37:28;22.17;;;3.40;;
61527;SDS011;47395;42.032;-8.634;2023-09-18T00:39:28;19.40;;;3.20;;
61527;SDS011;47395;42.032;-8.634;2023-09-18T00:41:29;23.77;;;3.45;;
61527;SDS011;47395;42.032;-8.634;2023-09-18T00:43:30;16.65;;;2.95;;
61527;SDS011;47395;42.032;-8.634;2023-09-18T00:45:32;19.63;;;2.90;;
61527;SDS011;47395;42.032;-8.634;2023-09-18T00:47:33;23.42;;;4.75;;
61527;SDS011;47395;42.032;-8.634;2023-09-18T00:49:34;20.38;;;3.28;;
61527;SDS011;47395;42.032;-8.634;2023-09-18T00:51:38;22.35;;;3.08;;
61527;SDS011;47395;42.032;-8.634;2023-09-18T00:53:41;21.98;;;3.28;;
61527;SDS011;47395;42.032;-8.634;2023-09-18T00:55:45;16.38;;;3.10;;
61527;SDS011;47395;42.032;-8.634;2023-09-18T00:57:47;17.17;;;2.90;;
61527;SDS011;47395;42.032;-8.634;2023-09-18T00:59:48;19.75;;;3.58;;
61527;SDS011;47395;42.032;-8.634;2023-09-18T01:01:49;13.85;;;3.08;;
61527;SDS011;47395;42.032;-8.634;2023-09-18T01:03:51;19.08;;;2.95;;
61527;SDS011;47395;42.032;-8.634;2023-09-18T01:05:53;22.70;;;3.25;;
61527;SDS011;47395;42.032;-8.634;2023-09-18T01:07:56;17.02;;;2.63;;
61527;SDS011;47395;42.032;-8.634;2023-09-18T01:09:57;18.17;;;3.53;;
61527;SDS011;47395;42.032;-8.634;2023-09-18T01:12:17;20.95;;;3.83;;
61527;SDS011;47395;42.032;-8.634;2023-09-18T01:14:28;18.63;;;2.80;;
61527;SDS011;47395;42.032;-8.634;2023-09-18T01:16:39;11.75;;;2.88;;
61527;SDS011;47395;42.032;-8.634;2023-09-18T01:18:51;24.02;;;3.90;;
61527;SDS011;47395;42.032;-8.634;2023-09-18T01:20:52;15.02;;;3.58;;
61527;SDS011;47395;42.032;-8.634;2023-09-18T01:22:56;19.45;;;3.05;;
61527;SDS011;47395;42.032;-8.634;2023-09-18T01:24:56;23.08;;;3.42;;
61527;SDS011;47395;42.032;-8.634;2023-09-18T01:26:59;25.15;;;3.45;;
61527;SDS011;47395;42.032;-8.634;2023-09-18T01:29:00;22.35;;;3.13;;
61527;SDS011;47395;42.032;-8.634;2023-09-18T01:31:02;14.38;;;3.08;;
61527;SDS011;47395;42.032;-8.634;2023-09-18T01:33:03;23.13;;;3.28;;
61527;SDS011;47395;42.032;-8.634;2023-09-18T01:35:04;18.05;;;3.40;;
61527;SDS011;47395;42.032;-8.634;2023-09-18T01:37:09;22.02;;;3.38;;
61527;SDS011;47395;42.032;-8.634;2023-09-18T01:39:11;27.70;;;3.88;;
61527;SDS011;47395;42.032;-8.634;2023-09-18T01:41:12;18.23;;;3.05;;
61527;SDS011;47395;42.032;-8.634;2023-09-18T01:43:13;20.10;;;3.38;;
61527;SDS011;47395;42.032;-8.634;2023-09-18T01:45:14;22.65;;;3.05;;
61527;SDS011;47395;42.032;-8.634;2023-09-18T01:47:16;26.75;;;3.38;;
61527;SDS011;47395;42.032;-8.634;2023-09-18T01:49:26;17.48;;;3.08;;
61527;SDS011;47395;42.032;-8.634;2023-09-18T01:51:30;13.73;;;2.72;;
61527;SDS011;47395;42.032;-8.634;2023-09-18T01:53:31;17.77;;;3.38;;
61527;SDS011;47395;42.032;-8.634;2023-09-18T01:55:32;26.08;;;3.10;;
61527;SDS011;47395;42.032;-8.634;2023-09-18T01:57:33;26.27;;;3.25;;
61527;SDS011;47395;42.032;-8.634;2023-09-18T01:59:35;23.98;;;3.10;;
61527;SDS011;47395;42.032;-8.634;2023-09-18T02:01:36;19.40;;;3.10;;
61527;SDS011;47395;42.032;-8.634;2023-09-18T02:03:38;22.15;;;3.05;;
61527;SDS011;47395;42.032;-8.634;2023-09-18T02:05:43;20.63;;;3.13;;
61527;SDS011;47395;42.032;-8.634;2023-09-18T02:07:44;25.35;;;3.63;;
61527;SDS011;47395;42.032;-8.634;2023-09-18T02:09:45;29.30;;;3.30;;
61527;SDS011;47395;42.032;-8.634;2023-09-18T02:11:47;21.25;;;3.47;;
61527;SDS011;47395;42.032;-8.634;2023-09-18T02:13:48;19.02;;;3.47;;
61527;SDS011;47395;42.032;-8.634;2023-09-18T02:15:50;16.63;;;3.05;;
61527;SDS011;47395;42.032;-8.634;2023-09-18T02:17:52;27.23;;;3.15;;
61527;SDS011;47395;42.032;-8.634;2023-09-18T02:19:52;17.33;;;2.78;;
61527;SDS011;47395;42.032;-8.634;2023-09-18T02:21:56;15.75;;;2.78;;
61527;SDS011;47395;42.032;-8.634;2023-09-18T02:23:58;21.35;;;3.17;;
61527;SDS011;47395;42.032;-8.634;2023-09-18T02:25:58;19.20;;;3.03;;
61527;SDS011;47395;42.032;-8.634;2023-09-18T02:27:59;19.45;;;3.20;;
61527;SDS011;47395;42.032;-8.634;2023-09-18T02:30:00;27.98;;;3.28;;
61527;SDS011;47395;42.032;-8.634;2023-09-18T02:32:01;14.73;;;2.78;;
61527;SDS011;47395;42.032;-8.634;2023-09-18T02:34:02;21.80;;;3.65;;
61527;SDS011;47395;42.032;-8.634;2023-09-18T02:36:03;14.13;;;2.80;;
61527;SDS011;47395;42.032;-8.634;2023-09-18T02:38:04;27.10;;;3.75;;
61527;SDS011;47395;42.032;-8.634;2023-09-18T02:40:05;23.85;;;3.53;;
61527;SDS011;47395;42.032;-8.634;2023-09-18T02:42:08;20.98;;;3.47;;
61527;SDS011;47395;42.032;-8.634;2023-09-18T02:44:09;29.00;;;3.90;;
61527;SDS011;47395;42.032;-8.634;2023-09-18T02:46:10;18.85;;;2.92;;
61527;SDS011;47395;42.032;-8.634;2023-09-18T02:48:11;25.70;;;4.07;;
61527;SDS011;47395;42.032;-8.634;2023-09-18T02:50:12;24.60;;;3.78;;
61527;SDS011;47395;42.032;-8.634;2023-09-18T02:52:13;32.63;;;3.35;;
61527;SDS011;47395;42.032;-8.634;2023-09-18T02:54:14;21.75;;;3.63;;
61527;SDS011;47395;42.032;-8.634;2023-09-18T02:56:16;22.73;;;3.42;;
61527;SDS011;47395;42.032;-8.634;2023-09-18T02:58:17;20.30;;;2.67;;
61527;SDS011;47395;42.032;-8.634;2023-09-18T03:00:23;24.90;;;3.05;;
61527;SDS011;47395;42.032;-8.634;2023-09-18T03:02:23;19.65;;;2.90;;
61527;SDS011;47395;42.032;-8.634;2023-09-18T03:04:24;18.70;;;3.72;;
61527;SDS011;47395;42.032;-8.634;2023-09-18T03:06:25;21.48;;;3.65;;
61527;SDS011;47395;42.032;-8.634;2023-09-18T03:08:26;27.42;;;3.92;;
61527;SDS011;47395;42.032;-8.634;2023-09-18T03:10:27;24.60;;;3.25;;
61527;SDS011;47395;42.032;-8.634;2023-09-18T03:12:28;19.27;;;3.53;;
61527;SDS011;47395;42.032;-8.634;2023-09-18T03:14:29;13.10;;;3.30;;
61527;SDS011;47395;42.032;-8.634;2023-09-18T03:16:30;31.17;;;4.30;;
61527;SDS011;47395;42.032;-8.634;2023-09-18T03:18:33;21.00;;;3.67;;
61527;SDS011;47395;42.032;-8.634;2023-09-18T03:20:34;21.73;;;2.95;;
61527;SDS011;47395;42.032;-8.634;2023-09-18T03:22:35;16.88;;;3.47;;
61527;SDS011;47395;42.032;-8.634;2023-09-18T03:24:36;20.55;;;3.00;;
61527;SDS011;47395;42.032;-8.634;2023-09-18T03:26:37;22.10;;;3.83;;
61527;SDS011;47395;42.032;-8.634;2023-09-18T03:28:38;20.08;;;3.33;;
61527;SDS011;47395;42.032;-8.634;2023-09-18T03:30:39;17.90;;;3.13;;
61527;SDS011;47395;42.032;-8.634;2023-09-18T03:32:40;19.40;;;3.60;;
61527;SDS011;47395;42.032;-8.634;2023-09-18T03:34:41;20.10;;;3.20;;
61527;SDS011;47395;42.032;-8.634;2023-09-18T03:36:42;24.35;;;3.17;;
61527;SDS011;47395;42.032;-8.634;2023-09-18T03:38:43;26.88;;;3.83;;
61527;SDS011;47395;42.032;-8.634;2023-09-18T03:40:45;22.27;;;4.05;;
61527;SDS011;47395;42.032;-8.634;2023-09-18T03:42:46;22.63;;;4.20;;
61527;SDS011;47395;42.032;-8.634;2023-09-18T03:44:47;25.60;;;3.60;;
61527;SDS011;47395;42.032;-8.634;2023-09-18T03:46:49;28.15;;;4.30;;
61527;SDS011;47395;42.032;-8.634;2023-09-18T03:48:52;23.75;;;3.63;;
61527;SDS011;47395;42.032;-8.634;2023-09-18T03:50:53;21.80;;;3.70;;
61527;SDS011;47395;42.032;-8.634;2023-09-18T03:52:54;19.60;;;3.55;;
61527;SDS011;47395;42.032;-8.634;2023-09-18T03:54:55;22.25;;;4.50;;
61527;SDS011;47395;42.032;-8.634;2023-09-18T03:56:56;19.77;;;3.95;;
61527;SDS011;47395;42.032;-8.634;2023-09-18T03:58:57;16.25;;;3.72;;
61527;SDS011;47395;42.032;-8.634;2023-09-18T04:01:01;23.08;;;3.58;;
61527;SDS011;47395;42.032;-8.634;2023-09-18T04:05:13;26.63;;;4.10;;
61527;SDS011;47395;42.032;-8.634;2023-09-18T04:07:13;21.75;;;4.13;;
61527;SDS011;47395;42.032;-8.634;2023-09-18T04:09:16;22.95;;;4.40;;
61527;SDS011;47395;42.032;-8.634;2023-09-18T04:11:18;17.10;;;3.33;;
61527;SDS011;47395;42.032;-8.634;2023-09-18T04:13:25;18.27;;;3.45;;
61527;SDS011;47395;42.032;-8.634;2023-09-18T04:15:27;27.48;;;3.90;;
61527;SDS011;47395;42.032;-8.634;2023-09-18T04:17:30;25.27;;;3.72;;
61527;SDS011;47395;42.032;-8.634;2023-09-18T04:19:32;26.45;;;4.68;;
61527;SDS011;47395;42.032;-8.634;2023-09-18T04:21:32;27.02;;;4.85;;
61527;SDS011;47395;42.032;-8.634;2023-09-18T04:23:33;24.55;;;4.05;;
61527;SDS011;47395;42.032;-8.634;2023-09-18T04:25:37;21.48;;;4.15;;
61527;SDS011;47395;42.032;-8.634;2023-09-18T04:27:37;28.58;;;4.60;;
61527;SDS011;47395;42.032;-8.634;2023-09-18T04:29:39;21.92;;;4.75;;
61527;SDS011;47395;42.032;-8.634;2023-09-18T04:31:40;31.15;;;4.47;;
61527;SDS011;47395;42.032;-8.634;2023-09-18T04:33:41;24.33;;;4.18;;
61527;SDS011;47395;42.032;-8.634;2023-09-18T04:35:42;30.85;;;3.90;;
61527;SDS011;47395;42.032;-8.634;2023-09-18T04:37:44;20.20;;;3.85;;
61527;SDS011;47395;42.032;-8.634;2023-09-18T04:39:45;18.52;;;3.78;;
61527;SDS011;47395;42.032;-8.634;2023-09-18T04:41:46;19.48;;;2.97;;
61527;SDS011;47395;42.032;-8.634;2023-09-18T04:43:47;22.40;;;4.35;;
61527;SDS011;47395;42.032;-8.634;2023-09-18T04:45:49;27.45;;;4.13;;
61527;SDS011;47395;42.032;-8.634;2023-09-18T04:47:49;29.77;;;4.28;;
61527;SDS011;47395;42.032;-8.634;2023-09-18T04:49:50;25.50;;;3.78;;
61527;SDS011;47395;42.032;-8.634;2023-09-18T04:51:51;18.92;;;3.25;;
61527;SDS011;47395;42.032;-8.634;2023-09-18T04:53:52;23.75;;;3.72;;
61527;SDS011;47395;42.032;-8.634;2023-09-18T04:55:55;26.48;;;3.90;;
61527;SDS011;47395;42.032;-8.634;2023-09-18T04:57:56;21.08;;;3.75;;
61527;SDS011;47395;42.032;-8.634;2023-09-18T04:59:59;15.85;;;3.90;;
61527;SDS011;47395;42.032;-8.634;2023-09-18T05:02:00;18.75;;;3.30;;
61527;SDS011;47395;42.032;-8.634;2023-09-18T05:04:00;32.58;;;4.05;;
61527;SDS011;47395;42.032;-8.634;2023-09-18T05:06:02;31.25;;;5.20;;
61527;SDS011;47395;42.032;-8.634;2023-09-18T05:08:06;21.15;;;3.53;;
61527;SDS011;47395;42.032;-8.634;2023-09-18T05:10:08;20.15;;;3.33;;
61527;SDS011;47395;42.032;-8.634;2023-09-18T05:12:09;23.50;;;3.55;;
61527;SDS011;47395;42.032;-8.634;2023-09-18T05:14:13;20.83;;;3.67;;
61527;SDS011;47395;42.032;-8.634;2023-09-18T05:16:16;22.35;;;4.10;;
61527;SDS011;47395;42.032;-8.634;2023-09-18T05:18:17;22.08;;;3.70;;
61527;SDS011;47395;42.032;-8.634;2023-09-18T05:20:18;17.08;;;3.28;;
61527;SDS011;47395;42.032;-8.634;2023-09-18T05:22:19;20.17;;;3.97;;
61527;SDS011;47395;42.032;-8.634;2023-09-18T05:24:20;11.38;;;3.25;;
61527;SDS011;47395;42.032;-8.634;2023-09-18T05:26:27;27.55;;;3.85;;
61527;SDS011;47395;42.032;-8.634;2023-09-18T05:28:29;17.85;;;3.38;;
61527;SDS011;47395;42.032;-8.634;2023-09-18T05:30:30;27.60;;;3.33;;
61527;SDS011;47395;42.032;-8.634;2023-09-18T05:32:34;25.27;;;4.03;;
61527;SDS011;47395;42.032;-8.634;2023-09-18T05:34:35;19.38;;;3.63;;
61527;SDS011;47395;42.032;-8.634;2023-09-18T05:36:35;15.80;;;3.53;;
61527;SDS011;47395;42.032;-8.634;2023-09-18T05:38:36;19.38;;;3.42;;
61527;SDS011;47395;42.032;-8.634;2023-09-18T05:40:37;13.98;;;3.20;;
61527;SDS011;47395;42.032;-8.634;2023-09-18T05:42:39;21.20;;;3.25;;
61527;SDS011;47395;42.032;-8.634;2023-09-18T05:44:43;17.52;;;3.28;;
61527;SDS011;47395;42.032;-8.634;2023-09-18T05:46:44;14.25;;;3.33;;
61527;SDS011;47395;42.032;-8.634;2023-09-18T05:48:45;16.48;;;3.00;;
61527;SDS011;47395;42.032;-8.634;2023-09-18T05:50:46;16.95;;;3.40;;
61527;SDS011;47395;42.032;-8.634;2023-09-18T05:52:48;10.07;;;3.00;;
61527;SDS011;47395;42.032;-8.634;2023-09-18T05:54:52;15.15;;;3.28;;
61527;SDS011;47395;42.032;-8.634;2023-09-18T05:56:53;15.48;;;3.35;;
61527;SDS011;47395;42.032;-8.634;2023-09-18T05:58:53;20.67;;;4.03;;
61527;SDS011;47395;42.032;-8.634;2023-09-18T06:00:55;19.45;;;3.20;;
61527;SDS011;47395;42.032;-8.634;2023-09-18T06:02:56;23.25;;;3.78;;
61527;SDS011;47395;42.032;-8.634;2023-09-18T06:05:00;26.20;;;4.00;;
61527;SDS011;47395;42.032;-8.634;2023-09-18T06:07:03;13.68;;;3.58;;
61527;SDS011;47395;42.032;-8.634;2023-09-18T06:09:04;23.58;;;3.47;;
61527;SDS011;47395;42.032;-8.634;2023-09-18T06:11:05;21.00;;;3.63;;
61527;SDS011;47395;42.032;-8.634;2023-09-18T06:13:06;18.30;;;3.63;;
61527;SDS011;47395;42.032;-8.634;2023-09-18T06:15:07;14.65;;;3.13;;
61527;SDS011;47395;42.032;-8.634;2023-09-18T06:17:11;17.00;;;3.38;;
61527;SDS011;47395;42.032;-8.634;2023-09-18T06:19:12;19.42;;;3.30;;
61527;SDS011;47395;42.032;-8.634;2023-09-18T06:21:13;17.05;;;3.25;;
61527;SDS011;47395;42.032;-8.634;2023-09-18T06:23:14;26.10;;;3.80;;
61527;SDS011;47395;42.032;-8.634;2023-09-18T06:25:15;18.40;;;3.17;;
61527;SDS011;47395;42.032;-8.634;2023-09-18T06:27:16;22.77;;;3.10;;
61527;SDS011;47395;42.032;-8.634;2023-09-18T06:29:19;18.40;;;3.72;;
61527;SDS011;47395;42.032;-8.634;2023-09-18T06:31:19;17.25;;;3.63;;
61527;SDS011;47395;42.032;-8.634;2023-09-18T06:33:21;19.85;;;3.15;;
61527;SDS011;47395;42.032;-8.634;2023-09-18T06:35:22;16.40;;;3.78;;
61527;SDS011;47395;42.032;-8.634;2023-09-18T06:37:23;23.98;;;3.28;;
61527;SDS011;47395;42.032;-8.634;2023-09-18T06:39:24;13.90;;;3.70;;
61527;SDS011;47395;42.032;-8.634;2023-09-18T06:41:26;16.20;;;3.33;;
61527;SDS011;47395;42.032;-8.634;2023-09-18T06:43:27;14.85;;;3.03;;
61527;SDS011;47395;42.032;-8.634;2023-09-18T06:45:28;18.75;;;3.47;;
61527;SDS011;47395;42.032;-8.634;2023-09-18T06:47:29;21.48;;;3.58;;
61527;SDS011;47395;42.032;-8.634;2023-09-18T06:49:29;15.50;;;3.63;;
61527;SDS011;47395;42.032;-8.634;2023-09-18T06:51:31;16.05;;;3.85;;
61527;SDS011;47395;42.032;-8.634;2023-09-18T06:53:32;11.98;;;3.58;;
61527;SDS011;47395;42.032;-8.634;2023-09-18T06:55:33;10.13;;;3.25;;
61527;SDS011;47395;42.032;-8.634;2023-09-18T06:57:34;10.82;;;4.00;;
61527;SDS011;47395;42.032;-8.634;2023-09-18T06:59:34;11.48;;;3.00;;
61527;SDS011;47395;42.032;-8.634;2023-09-18T07:01:35;12.50;;;3.67;;
61527;SDS011;47395;42.032;-8.634;2023-09-18T07:03:36;12.38;;;3.10;;
61527;SDS011;47395;42.032;-8.634;2023-09-18T07:05:37;14.20;;;2.80;;
61527;SDS011;47395;42.032;-8.634;2023-09-18T07:07:38;22.20;;;3.70;;
61527;SDS011;47395;42.032;-8.634;2023-09-18T07:09:39;23.15;;;3.55;;
61527;SDS011;47395;42.032;-8.634;2023-09-18T07:11:41;15.60;;;3.50;;
61527;SDS011;47395;42.032;-8.634;2023-09-18T07:13:42;14.88;;;3.28;;
61527;SDS011;47395;42.032;-8.634;2023-09-18T07:15:44;14.63;;;3.38;;
61527;SDS011;47395;42.032;-8.634;2023-09-18T07:17:45;14.50;;;3.13;;
61527;SDS011;47395;42.032;-8.634;2023-09-18T07:19:45;16.73;;;3.58;;
61527;SDS011;47395;42.032;-8.634;2023-09-18T07:21:46;11.25;;;3.00;;
61527;SDS011;47395;42.032;-8.634;2023-09-18T07:23:47;13.02;;;3.85;;
61527;SDS011;47395;42.032;-8.634;2023-09-18T07:25:48;16.60;;;4.15;;
61527;SDS011;47395;42.032;-8.634;2023-09-18T07:27:49;21.75;;;3.67;;
61527;SDS011;47395;42.032;-8.634;2023-09-18T07:29:50;17.00;;;3.83;;
61527;SDS011;47395;42.032;-8.634;2023-09-18T07:31:51;9.18;;;3.15;;
61527;SDS011;47395;42.032;-8.634;2023-09-18T07:33:52;14.93;;;3.15;;
61527;SDS011;47395;42.032;-8.634;2023-09-18T07:35:53;19.15;;;3.35;;
61527;SDS011;47395;42.032;-8.634;2023-09-18T07:37:54;16.75;;;4.05;;
61527;SDS011;47395;42.032;-8.634;2023-09-18T07:39:55;17.95;;;3.78;;
61527;SDS011;47395;42.032;-8.634;2023-09-18T07:41:56;19.05;;;3.72;;
61527;SDS011;47395;42.032;-8.634;2023-09-18T07:43:57;21.70;;;3.35;;
61527;SDS011;47395;42.032;-8.634;2023-09-18T07:45:59;17.33;;;5.28;;
61527;SDS011;47395;42.032;-8.634;2023-09-18T07:48:02;18.75;;;4.43;;
61527;SDS011;47395;42.032;-8.634;2023-09-18T07:50:03;14.63;;;3.58;;
61527;SDS011;47395;42.032;-8.634;2023-09-18T07:52:05;12.95;;;3.05;;
61527;SDS011;47395;42.032;-8.634;2023-09-18T07:54:06;18.02;;;4.25;;
61527;SDS011;47395;42.032;-8.634;2023-09-18T07:56:08;13.63;;;3.92;;
61527;SDS011;47395;42.032;-8.634;2023-09-18T07:58:08;21.85;;;4.07;;
61527;SDS011;47395;42.032;-8.634;2023-09-18T08:00:10;14.90;;;4.35;;
61527;SDS011;47395;42.032;-8.634;2023-09-18T08:02:13;21.40;;;4.25;;
61527;SDS011;47395;42.032;-8.634;2023-09-18T08:04:14;17.63;;;3.97;;
61527;SDS011;47395;42.032;-8.634;2023-09-18T08:06:14;17.73;;;3.50;;
61527;SDS011;47395;42.032;-8.634;2023-09-18T08:08:16;18.13;;;3.85;;
61527;SDS011;47395;42.032;-8.634;2023-09-18T08:10:17;21.50;;;3.92;;
61527;SDS011;47395;42.032;-8.634;2023-09-18T08:12:21;15.57;;;3.78;;
61527;SDS011;47395;42.032;-8.634;2023-09-18T08:14:23;15.68;;;3.95;;
61527;SDS011;47395;42.032;-8.634;2023-09-18T08:16:24;16.17;;;3.72;;
61527;SDS011;47395;42.032;-8.634;2023-09-18T08:18:24;15.77;;;3.85;;
61527;SDS011;47395;42.032;-8.634;2023-09-18T08:20:28;12.10;;;3.75;;
61527;SDS011;47395;42.032;-8.634;2023-09-18T08:22:29;9.43;;;3.50;;
61527;SDS011;47395;42.032;-8.634;2023-09-18T08:24:31;15.40;;;4.10;;
61527;SDS011;47395;42.032;-8.634;2023-09-18T08:26:32;13.10;;;3.85;;
61527;SDS011;47395;42.032;-8.634;2023-09-18T08:28:32;14.45;;;3.83;;
61527;SDS011;47395;42.032;-8.634;2023-09-18T08:30:36;8.60;;;2.90;;
61527;SDS011;47395;42.032;-8.634;2023-09-18T08:32:39;11.98;;;4.20;;
61527;SDS011;47395;42.032;-8.634;2023-09-18T08:34:41;13.98;;;4.00;;
61527;SDS011;47395;42.032;-8.634;2023-09-18T08:36:42;15.25;;;3.83;;
61527;SDS011;47395;42.032;-8.634;2023-09-18T08:38:43;11.05;;;3.70;;
61527;SDS011;47395;42.032;-8.634;2023-09-18T08:40:44;18.98;;;3.58;;
61527;SDS011;47395;42.032;-8.634;2023-09-18T08:42:47;19.60;;;3.42;;
61527;SDS011;47395;42.032;-8.634;2023-09-18T08:44:51;14.60;;;3.25;;
61527;SDS011;47395;42.032;-8.634;2023-09-18T08:46:54;12.30;;;3.70;;
61527;SDS011;47395;42.032;-8.634;2023-09-18T08:49:02;14.88;;;3.42;;
61527;SDS011;47395;42.032;-8.634;2023-09-18T08:51:05;13.30;;;4.13;;
61527;SDS011;47395;42.032;-8.634;2023-09-18T08:53:06;15.95;;;3.55;;
61527;SDS011;47395;42.032;-8.634;2023-09-18T08:55:08;14.63;;;4.32;;
61527;SDS011;47395;42.032;-8.634;2023-09-18T08:57:09;20.40;;;3.65;;
61527;SDS011;47395;42.032;-8.634;2023-09-18T08:59:12;14.05;;;3.88;;
61527;SDS011;47395;42.032;-8.634;2023-09-18T09:01:14;13.32;;;3.65;;
61527;SDS011;47395;42.032;-8.634;2023-09-18T09:03:14;19.85;;;4.07;;
61527;SDS011;47395;42.032;-8.634;2023-09-18T09:05:15;16.83;;;3.85;;
61527;SDS011;47395;42.032;-8.634;2023-09-18T09:07:16;17.60;;;3.40;;
61527;SDS011;47395;42.032;-8.634;2023-09-18T09:09:17;12.90;;;3.63;;
61527;SDS011;47395;42.032;-8.634;2023-09-18T09:11:19;10.07;;;3.38;;
61527;SDS011;47395;42.032;-8.634;2023-09-18T09:13:20;13.07;;;3.22;;
61527;SDS011;47395;42.032;-8.634;2023-09-18T09:15:27;13.80;;;3.60;;
61527;SDS011;47395;42.032;-8.634;2023-09-18T09:17:29;12.48;;;3.45;;
61527;SDS011;47395;42.032;-8.634;2023-09-18T09:19:31;11.13;;;3.08;;
61527;SDS011;47395;42.032;-8.634;2023-09-18T09:21:39;18.92;;;4.00;;
61527;SDS011;47395;42.032;-8.634;2023-09-18T09:23:44;13.40;;;2.90;;
61527;SDS011;47395;42.032;-8.634;2023-09-18T09:25:52;14.70;;;3.50;;
61527;SDS011;47395;42.032;-8.634;2023-09-18T09:27:53;13.95;;;3.53;;
61527;SDS011;47395;42.032;-8.634;2023-09-18T09:30:01;11.75;;;3.65;;
61527;SDS011;47395;42.032;-8.634;2023-09-18T09:32:17;10.43;;;3.15;;
61527;SDS011;47395;42.032;-8.634;2023-09-18T09:34:26;12.85;;;3.05;;
61527;SDS011;47395;42.032;-8.634;2023-09-18T09:36:30;12.15;;;3.55;;
61527;SDS011;47395;42.032;-8.634;2023-09-18T09:38:33;15.68;;;4.03;;
61527;SDS011;47395;42.032;-8.634;2023-09-18T09:40:35;8.88;;;3.75;;
61527;SDS011;47395;42.032;-8.634;2023-09-18T09:42:41;12.38;;;3.80;;
61527;SDS011;47395;42.032;-8.634;2023-09-18T09:44:42;12.40;;;3.22;;
61527;SDS011;47395;42.032;-8.634;2023-09-18T09:46:49;15.02;;;3.83;;
61527;SDS011;47395;42.032;-8.634;2023-09-18T09:48:57;12.18;;;4.15;;
61527;SDS011;47395;42.032;-8.634;2023-09-18T09:51:02;8.48;;;3.03;;
61527;SDS011;47395;42.032;-8.634;2023-09-18T09:53:03;15.80;;;4.00;;
61527;SDS011;47395;42.032;-8.634;2023-09-18T09:55:11;10.05;;;2.85;;
61527;SDS011;47395;42.032;-8.634;2023-09-18T09:57:18;13.98;;;4.38;;
61527;SDS011;47395;42.032;-8.634;2023-09-18T09:59:19;12.00;;;3.38;;
61527;SDS011;47395;42.032;-8.634;2023-09-18T10:01:20;10.95;;;3.15;;
61527;SDS011;47395;42.032;-8.634;2023-09-18T10:03:21;10.90;;;3.40;;
61527;SDS011;47395;42.032;-8.634;2023-09-18T10:05:22;10.25;;;3.03;;
61527;SDS011;47395;42.032;-8.634;2023-09-18T10:07:29;12.15;;;3.33;;
61527;SDS011;47395;42.032;-8.634;2023-09-18T10:09:30;10.55;;;3.33;;
61527;SDS011;47395;42.032;-8.634;2023-09-18T10:11:34;11.95;;;3.40;;
61527;SDS011;47395;42.032;-8.634;2023-09-18T10:13:55;9.07;;;3.45;;
61527;SDS011;47395;42.032;-8.634;2023-09-18T10:16:00;13.55;;;3.38;;
61527;SDS011;47395;42.032;-8.634;2023-09-18T10:18:24;6.85;;;3.25;;
61527;SDS011;47395;42.032;-8.634;2023-09-18T10:22:30;12.38;;;3.15;;
61527;SDS011;47395;42.032;-8.634;2023-09-18T10:24:33;8.95;;;3.33;;
61527;SDS011;47395;42.032;-8.634;2023-09-18T10:26:39;17.73;;;4.00;;
61527;SDS011;47395;42.032;-8.634;2023-09-18T10:28:47;13.57;;;3.25;;
61527;SDS011;47395;42.032;-8.634;2023-09-18T10:30:49;14.13;;;3.67;;
61527;SDS011;47395;42.032;-8.634;2023-09-18T10:32:51;10.32;;;3.17;;
61527;SDS011;47395;42.032;-8.634;2023-09-18T10:34:53;11.88;;;3.25;;
61527;SDS011;47395;42.032;-8.634;2023-09-18T10:36:54;12.40;;;3.40;;
61527;SDS011;47395;42.032;-8.634;2023-09-18T10:38:56;20.23;;;3.85;;
61527;SDS011;47395;42.032;-8.634;2023-09-18T10:40:58;18.48;;;3.75;;
61527;SDS011;47395;42.032;-8.634;2023-09-18T10:43:00;12.32;;;3.10;;
61527;SDS011;47395;42.032;-8.634;2023-09-18T10:45:06;12.75;;;3.70;;
61527;SDS011;47395;42.032;-8.634;2023-09-18T10:47:10;14.32;;;3.58;;
61527;SDS011;47395;42.032;-8.634;2023-09-18T10:49:12;12.77;;;3.67;;
61527;SDS011;47395;42.032;-8.634;2023-09-18T10:51:14;11.05;;;3.28;;
61527;SDS011;47395;42.032;-8.634;2023-09-18T10:53:21;10.85;;;3.20;;
61527;SDS011;47395;42.032;-8.634;2023-09-18T10:55:25;10.25;;;3.15;;
61527;SDS011;47395;42.032;-8.634;2023-09-18T10:57:26;10.40;;;3.75;;
61527;SDS011;47395;42.032;-8.634;2023-09-18T10:59:27;12.00;;;3.10;;
61527;SDS011;47395;42.032;-8.634;2023-09-18T11:01:29;9.95;;;3.35;;
61527;SDS011;47395;42.032;-8.634;2023-09-18T11:03:32;13.63;;;3.38;;
61527;SDS011;47395;42.032;-8.634;2023-09-18T11:05:34;10.20;;;3.40;;
61527;SDS011;47395;42.032;-8.634;2023-09-18T11:07:35;12.93;;;3.60;;
61527;SDS011;47395;42.032;-8.634;2023-09-18T11:09:43;11.27;;;3.60;;
61527;SDS011;47395;42.032;-8.634;2023-09-18T11:11:45;11.52;;;3.53;;
61527;SDS011;47395;42.032;-8.634;2023-09-18T11:13:51;11.05;;;3.47;;
61527;SDS011;47395;42.032;-8.634;2023-09-18T11:15:58;10.60;;;3.92;;
61527;SDS011;47395;42.032;-8.634;2023-09-18T11:18:01;17.33;;;4.03;;
61527;SDS011;47395;42.032;-8.634;2023-09-18T11:20:10;12.52;;;3.45;;
61527;SDS011;47395;42.032;-8.634;2023-09-18T11:22:17;9.90;;;3.70;;
61527;SDS011;47395;42.032;-8.634;2023-09-18T11:24:22;11.10;;;3.00;;
61527;SDS011;47395;42.032;-8.634;2023-09-18T11:26:23;13.77;;;3.20;;
61527;SDS011;47395;42.032;-8.634;2023-09-18T11:28:29;9.90;;;2.80;;
61527;SDS011;47395;42.032;-8.634;2023-09-18T11:30:32;8.38;;;3.08;;
61527;SDS011;47395;42.032;-8.634;2023-09-18T11:32:38;10.25;;;2.80;;
61527;SDS011;47395;42.032;-8.634;2023-09-18T11:34:41;12.35;;;3.20;;
61527;SDS011;47395;42.032;-8.634;2023-09-18T11:36:43;7.05;;;2.47;;
61527;SDS011;47395;42.032;-8.634;2023-09-18T11:38:54;12.68;;;3.13;;
61527;SDS011;47395;42.032;-8.634;2023-09-18T11:43:26;7.05;;;2.70;;
61527;SDS011;47395;42.032;-8.634;2023-09-18T11:45:29;6.28;;;2.40;;
61527;SDS011;47395;42.032;-8.634;2023-09-18T11:47:30;8.02;;;2.33;;
61527;SDS011;47395;42.032;-8.634;2023-09-18T11:49:32;13.70;;;3.10;;
61527;SDS011;47395;42.032;-8.634;2023-09-18T11:51:34;7.95;;;2.58;;
61527;SDS011;47395;42.032;-8.634;2023-09-18T11:53:35;6.50;;;2.03;;
61527;SDS011;47395;42.032;-8.634;2023-09-18T11:55:40;7.75;;;2.63;;
61527;SDS011;47395;42.032;-8.634;2023-09-18T11:57:41;9.20;;;2.33;;
61527;SDS011;47395;42.032;-8.634;2023-09-18T11:59:46;7.82;;;2.83;;
61527;SDS011;47395;42.032;-8.634;2023-09-18T12:01:53;9.50;;;2.90;;
61527;SDS011;47395;42.032;-8.634;2023-09-18T12:04:00;12.75;;;3.33;;